Time;durP1;ratioP1;P1;durP2;ratioP2;P2;SDS_P1;SDS_P2;PMS_P1;PMS_P2;Temp;Humidity;BMP_temperature;BMP_pressure;BME280_temperature;BME280_humidity;BME280_pressure;Samples;Min_cycle;Max_cycle;Signal;HPM_P1;HPM_P2
2021/01/14 00:01:04;;;;;;;13.68;8.80;;;;;;;3.11;51.14;93307.22;4958856;28;20620;-77
2021/01/14 00:03:30;;;;;;;18.35;9.23;;;;;;;3.11;51.17;93310.63;4958615;28;20038;-77
2021/01/14 00:05:55;;;;;;;17.27;9.00;;;;;;;3.07;50.88;93300.94;4964069;28;20065;-78
2021/01/14 00:08:20;;;;;;;12.98;8.68;;;;;;;3.13;50.60;93315.59;4960335;28;21654;-77
2021/01/14 00:10:46;;;;;;;12.95;8.63;;;;;;;2.99;50.64;93307.41;4961984;28;20047;-77
2021/01/14 00:13:13;;;;;;;14.50;9.43;;;;;;;3.10;50.84;93310.88;4958251;28;20543;-78
2021/01/14 00:15:38;;;;;;;12.70;9.10;;;;;;;3.08;50.53;93307.75;4965817;28;20022;-79
2021/01/14 00:18:04;;;;;;;14.68;8.70;;;;;;;3.01;50.20;93313.97;4976299;28;20096;-78
2021/01/14 00:20:30;;;;;;;14.63;8.63;;;;;;;2.95;50.35;93309.75;4961183;28;20430;-78
2021/01/14 00:22:56;;;;;;;13.40;8.32;;;;;;;2.96;50.22;93298.28;4958698;28;20057;-77
2021/01/14 00:25:21;;;;;;;15.30;8.00;;;;;;;2.94;50.22;93302.97;4962535;28;20039;-76
2021/01/14 00:27:47;;;;;;;11.88;8.27;;;;;;;2.91;49.33;93311.31;4955602;28;20038;-75
2021/01/14 00:30:14;;;;;;;12.90;8.48;;;;;;;3.03;49.89;93314.50;4964311;28;20034;-76
2021/01/14 00:32:40;;;;;;;11.57;7.55;;;;;;;3.01;49.96;93298.31;4961065;28;20112;-78
2021/01/14 00:35:07;;;;;;;10.50;7.60;;;;;;;3.04;49.65;93307.44;4960178;28;20039;-76
2021/01/14 00:37:50;;;;;;;12.48;7.65;;;;;;;3.01;49.37;93305.34;4955755;28;20661;-76
2021/01/14 00:40:30;;;;;;;22.20;11.38;;;;;;;2.99;49.56;93315.25;4959204;28;20042;-76
2021/01/14 00:43:01;;;;;;;25.33;11.75;;;;;;;3.00;49.11;93311.59;4959345;28;20026;-76
2021/01/14 00:45:28;;;;;;;20.15;11.10;;;;;;;3.04;48.69;93308.22;4958005;28;20035;-76
2021/01/14 00:47:54;;;;;;;11.52;8.07;;;;;;;2.88;48.42;93290.16;4959952;28;20911;-76
2021/01/14 00:50:21;;;;;;;16.73;9.52;;;;;;;2.93;48.67;93301.38;4952172;28;21459;-76
2021/01/14 00:52:47;;;;;;;31.17;13.90;;;;;;;2.99;48.18;93305.59;4960949;28;20051;-76
2021/01/14 00:55:16;;;;;;;9.75;6.53;;;;;;;2.99;48.20;93310.03;4956201;28;20124;-75
2021/01/14 00:57:42;;;;;;;25.73;11.32;;;;;;;3.01;48.15;93308.75;4960273;28;20114;-76
2021/01/14 01:00:10;;;;;;;42.63;18.50;;;;;;;3.10;48.26;93310.88;4963307;28;20805;-76
2021/01/14 01:02:41;;;;;;;42.38;17.20;;;;;;;3.08;48.14;93305.13;4962386;28;20051;-76
2021/01/14 01:05:09;;;;;;;23.55;11.32;;;;;;;3.12;48.19;93309.59;4960539;28;20043;-76
2021/01/14 01:07:35;;;;;;;55.08;23.48;;;;;;;3.17;48.53;93308.81;4955038;28;20561;-76
2021/01/14 01:10:01;;;;;;;35.88;16.52;;;;;;;3.22;48.13;93308.84;4958968;28;20050;-76
2021/01/14 01:12:26;;;;;;;20.42;9.80;;;;;;;3.15;48.10;93308.28;4957997;28;20019;-75
2021/01/14 01:14:51;;;;;;;19.25;8.60;;;;;;;3.04;48.20;93295.19;4947346;28;20085;-77
2021/01/14 01:17:17;;;;;;;11.68;6.90;;;;;;;3.11;48.44;93305.41;4954303;28;20404;-78
2021/01/14 01:19:42;;;;;;;32.10;15.10;;;;;;;3.13;48.18;93302.53;4960185;28;20031;-78
2021/01/14 01:22:08;;;;;;;22.55;11.27;;;;;;;3.10;48.13;93300.44;4961357;28;20054;-78
2021/01/14 01:24:33;;;;;;;28.80;13.77;;;;;;;3.14;47.78;93306.72;4959128;28;20031;-78
2021/01/14 01:26:59;;;;;;;32.13;13.20;;;;;;;3.23;47.88;93302.56;4954267;28;20112;-78
2021/01/14 01:29:25;;;;;;;46.03;22.27;;;;;;;3.13;47.49;93289.50;4958944;28;20035;-78
2021/01/14 01:31:50;;;;;;;16.75;9.15;;;;;;;3.12;47.39;93298.38;4954538;28;20047;-78
2021/01/14 01:34:16;;;;;;;34.80;18.05;;;;;;;3.09;47.74;93283.97;4960033;28;20034;-78
2021/01/14 01:36:41;;;;;;;14.23;8.50;;;;;;;3.17;47.77;93282.72;4957334;28;20057;-78
2021/01/14 01:39:07;;;;;;;13.32;7.70;;;;;;;3.13;47.64;93273.84;4961670;28;20022;-78
2021/01/14 01:41:32;;;;;;;9.98;6.93;;;;;;;3.16;46.79;93283.75;4958747;28;20067;-78
2021/01/14 01:43:58;;;;;;;13.48;7.88;;;;;;;3.15;46.68;93279.56;4959638;28;20568;-78
2021/01/14 01:46:28;;;;;;;10.98;8.75;;;;;;;3.15;46.49;93284.78;4957635;28;20450;-78
2021/01/14 01:48:55;;;;;;;13.77;7.35;;;;;;;3.05;46.52;93275.09;4958354;28;20665;-78
2021/01/14 01:51:22;;;;;;;13.05;7.47;;;;;;;3.14;46.68;93285.81;4955631;28;20073;-78
2021/01/14 01:53:48;;;;;;;14.43;7.97;;;;;;;3.17;46.35;93285.34;4960681;28;20047;-78
2021/01/14 01:56:16;;;;;;;13.75;8.15;;;;;;;3.16;46.95;93278.53;4957186;28;20825;-77
2021/01/14 01:58:42;;;;;;;9.35;6.50;;;;;;;3.11;46.43;93260.22;4954721;28;20043;-79
2021/01/14 02:01:08;;;;;;;11.43;6.20;;;;;;;3.03;47.35;93259.66;4961551;28;20035;-78
2021/01/14 02:03:34;;;;;;;13.82;8.02;;;;;;;3.02;47.82;93268.56;4955766;28;20415;-78
2021/01/14 02:06:00;;;;;;;19.02;8.63;;;;;;;2.97;47.69;93259.94;4956278;28;20039;-78
2021/01/14 02:08:42;;;;;;;11.80;7.90;;;;;;;3.07;48.26;93270.41;4954488;28;20102;-77
2021/01/14 02:11:42;;;;;;;13.57;7.55;;;;;;;2.98;48.60;93277.16;4958944;28;20038;-77
2021/01/14 02:14:19;;;;;;;8.73;6.68;;;;;;;2.92;48.69;93271.13;4946818;28;20482;-77
2021/01/14 02:16:46;;;;;;;10.93;5.43;;;;;;;2.84;49.14;93266.38;4956244;28;20051;-77
2021/01/14 02:19:20;;;;;;;12.80;6.57;;;;;;;2.76;49.01;93263.47;4960463;28;20148;-77
2021/01/14 02:21:47;;;;;;;9.65;5.93;;;;;;;2.68;49.19;93246.47;4953624;28;20049;-78
2021/01/14 02:24:39;;;;;;;11.65;6.13;;;;;;;2.62;49.30;93250.09;4956943;28;20042;-78
2021/01/14 02:27:06;;;;;;;9.35;5.65;;;;;;;2.47;50.02;93250.78;4961865;28;20093;-78
2021/01/14 02:29:35;;;;;;;12.30;5.18;;;;;;;2.53;50.02;93257.63;4954846;28;20517;-78
2021/01/14 02:32:01;;;;;;;8.35;5.57;;;;;;;2.57;49.95;93253.47;4957577;28;20047;-78
2021/01/14 02:34:26;;;;;;;9.30;5.85;;;;;;;2.53;49.54;93259.44;4960752;28;20034;-78
2021/01/14 02:36:51;;;;;;;10.18;5.80;;;;;;;2.51;49.64;93251.06;4958656;28;20030;-78
2021/01/14 02:39:17;;;;;;;10.43;5.10;;;;;;;2.51;49.61;93249.25;4960451;28;20533;-77
2021/01/14 02:41:43;;;;;;;9.15;5.68;;;;;;;2.48;49.39;93248.97;4958155;28;20043;-77
2021/01/14 02:44:09;;;;;;;12.57;5.55;;;;;;;2.52;49.63;93248.22;4956695;28;20600;-78
2021/01/14 02:46:35;;;;;;;11.88;5.82;;;;;;;2.51;50.01;93251.06;4964640;28;20034;-78
2021/01/14 02:49:05;;;;;;;9.48;5.82;;;;;;;2.48;49.83;93252.38;4955989;28;20047;-78
2021/01/14 02:51:41;;;;;;;10.68;5.70;;;;;;;2.43;50.15;93254.16;4961149;28;20029;-78
2021/01/14 02:54:09;;;;;;;8.38;5.63;;;;;;;2.48;50.20;93262.00;4958473;28;20046;-78
2021/01/14 02:56:37;;;;;;;8.70;5.65;;;;;;;2.44;50.11;93271.38;4956437;28;20047;-79
2021/01/14 02:59:03;;;;;;;10.57;5.70;;;;;;;2.28;50.76;93254.06;4958582;28;20053;-78
2021/01/14 03:01:29;;;;;;;8.35;5.88;;;;;;;2.37;50.94;93271.59;4955175;28;20043;-78
2021/01/14 03:03:54;;;;;;;8.60;5.95;;;;;;;2.43;50.74;93270.59;4954525;28;20684;-78
2021/01/14 03:06:20;;;;;;;9.13;6.03;;;;;;;2.38;50.91;93261.94;4959134;28;20383;-78
2021/01/14 03:08:46;;;;;;;7.47;5.70;;;;;;;2.40;50.59;93259.84;4960652;28;20138;-78
2021/01/14 03:11:12;;;;;;;9.77;5.57;;;;;;;2.35;50.71;93272.84;4959595;28;20042;-78
2021/01/14 03:13:38;;;;;;;11.02;6.05;;;;;;;2.33;51.08;93254.09;4958876;28;20455;-78
2021/01/14 03:16:03;;;;;;;9.77;6.18;;;;;;;2.33;51.07;93254.09;4974391;28;20138;-78
2021/01/14 03:18:29;;;;;;;9.70;5.28;;;;;;;2.25;50.79;93244.13;4961975;28;20023;-78
2021/01/14 03:20:54;;;;;;;8.70;5.47;;;;;;;2.23;51.08;93249.59;4962811;28;20163;-78
2021/01/14 03:23:20;;;;;;;7.30;5.32;;;;;;;2.26;50.44;93254.28;4957366;28;20150;-78
2021/01/14 03:25:45;;;;;;;10.70;5.75;;;;;;;2.32;50.28;93245.47;4959447;28;20543;-78
2021/01/14 03:28:10;;;;;;;9.90;6.03;;;;;;;2.20;50.36;93244.84;4959323;28;20093;-78
2021/01/14 03:30:36;;;;;;;7.07;5.63;;;;;;;2.31;50.23;93245.72;4972714;28;20522;-78
2021/01/14 03:33:02;;;;;;;7.93;5.25;;;;;;;2.26;50.20;93237.84;4959521;28;20078;-79
2021/01/14 03:35:27;;;;;;;7.72;5.20;;;;;;;2.21;49.61;93224.78;4962732;28;20042;-78
2021/01/14 03:37:52;;;;;;;8.32;4.97;;;;;;;2.25;49.63;93231.84;4958965;28;20038;-78
2021/01/14 03:40:18;;;;;;;5.53;4.38;;;;;;;2.23;49.42;93223.53;4964535;28;20117;-78
2021/01/14 03:42:44;;;;;;;6.85;4.05;;;;;;;2.30;48.64;93226.69;4959194;28;20392;-78
2021/01/14 03:45:10;;;;;;;5.07;3.70;;;;;;;2.31;48.19;93219.66;4960047;28;20030;-79
2021/01/14 03:47:35;;;;;;;4.93;3.53;;;;;;;2.27;47.36;93218.59;4962187;28;20496;-78
2021/01/14 03:50:00;;;;;;;6.43;3.35;;;;;;;2.23;46.34;93196.66;4955325;28;20035;-78
2021/01/14 03:52:26;;;;;;;4.85;2.70;;;;;;;2.25;45.48;93200.56;4957875;28;20057;-78
2021/01/14 03:54:52;;;;;;;7.28;3.17;;;;;;;2.19;44.96;93191.19;4959933;28;20027;-78
2021/01/14 03:57:18;;;;;;;3.55;2.90;;;;;;;2.17;45.20;93195.84;4961157;28;20447;-78
2021/01/14 03:59:43;;;;;;;6.70;3.38;;;;;;;2.12;45.46;93201.03;4956505;28;20041;-78
2021/01/14 04:02:10;;;;;;;6.93;3.85;;;;;;;2.09;45.84;93197.13;4960489;28;20048;-77
2021/01/14 04:04:37;;;;;;;5.53;3.63;;;;;;;2.02;46.48;93186.09;4961221;28;20046;-78
2021/01/14 04:07:10;;;;;;;6.75;4.00;;;;;;;2.06;46.32;93186.38;4952222;28;20217;-78
2021/01/14 04:09:36;;;;;;;5.03;3.60;;;;;;;1.99;46.62;93196.25;4960400;28;20023;-78
2021/01/14 04:12:03;;;;;;;4.75;3.83;;;;;;;2.10;45.98;93201.25;4957842;28;20050;-78
2021/01/14 04:14:28;;;;;;;5.82;4.15;;;;;;;2.09;45.90;93191.91;4953567;28;20034;-78
2021/01/14 04:16:54;;;;;;;5.50;3.85;;;;;;;2.08;45.61;93186.94;4964160;28;20399;-78
2021/01/14 04:19:20;;;;;;;5.80;4.00;;;;;;;2.06;45.61;93187.16;4959100;28;20041;-78
2021/01/14 04:21:46;;;;;;;4.53;3.63;;;;;;;2.07;45.43;93180.94;4956419;28;20022;-76
2021/01/14 04:24:12;;;;;;;5.55;3.28;;;;;;;2.10;45.15;93185.63;4960272;28;20041;-77
2021/01/14 04:26:38;;;;;;;5.43;3.10;;;;;;;2.05;45.08;93185.59;4959366;28;20058;-78
2021/01/14 04:29:07;;;;;;;6.00;2.92;;;;;;;2.00;44.60;93180.38;4955683;28;20047;-78
2021/01/14 04:31:34;;;;;;;5.85;2.92;;;;;;;1.98;44.63;93179.81;4963722;28;20134;-78
2021/01/14 04:34:00;;;;;;;4.75;2.90;;;;;;;1.98;44.36;93174.63;4955558;28;20023;-78
2021/01/14 04:36:25;;;;;;;3.85;2.60;;;;;;;1.94;44.10;93167.56;4959753;28;20031;-78
2021/01/14 04:38:51;;;;;;;2.75;2.53;;;;;;;1.89;44.43;93176.13;4953021;28;20046;-78
2021/01/14 04:41:18;;;;;;;4.30;2.65;;;;;;;1.89;44.72;93170.91;4959490;28;20057;-78
2021/01/14 04:43:44;;;;;;;4.60;2.97;;;;;;;1.92;44.80;93167.78;4958247;28;21411;-77
2021/01/14 04:46:12;;;;;;;4.20;3.17;;;;;;;1.89;44.90;93176.13;4955295;28;20462;-78
2021/01/14 04:48:48;;;;;;;4.95;3.00;;;;;;;1.91;44.93;93168.81;4964302;28;20026;-79
2021/01/14 04:51:16;;;;;;;3.65;2.53;;;;;;;1.90;43.96;93166.50;4957946;28;20053;-78
2021/01/14 04:53:43;;;;;;;4.90;3.33;;;;;;;1.93;44.22;93166.75;4963519;28;20027;-77
2021/01/14 04:56:11;;;;;;;4.72;2.88;;;;;;;1.96;44.20;93173.28;4959547;28;20042;-78
2021/01/14 04:58:39;;;;;;;5.07;2.90;;;;;;;1.93;44.66;93166.75;4963721;28;20566;-78
2021/01/14 05:01:10;;;;;;;4.22;2.95;;;;;;;1.88;44.58;93165.94;4974695;28;20342;-78
2021/01/14 05:03:38;;;;;;;4.43;3.35;;;;;;;1.95;44.57;93163.91;4971813;28;20073;-78
2021/01/14 05:06:06;;;;;;;6.82;3.60;;;;;;;1.80;45.18;93156.78;4961531;28;20514;-78
2021/01/14 05:08:33;;;;;;;4.88;3.67;;;;;;;1.77;44.96;93148.66;4959512;28;20499;-78
2021/01/14 05:11:00;;;;;;;4.63;2.72;;;;;;;1.79;44.78;93149.22;4955982;28;20066;-78
2021/01/14 05:13:30;;;;;;;5.05;2.60;;;;;;;1.83;45.02;93143.25;4955617;28;20043;-77
2021/01/14 05:15:57;;;;;;;6.88;3.20;;;;;;;1.69;45.14;93132.47;4959597;28;20042;-77
2021/01/14 05:18:23;;;;;;;5.25;2.75;;;;;;;1.76;45.34;93134.09;4957407;28;20050;-78
2021/01/14 05:20:49;;;;;;;7.13;3.28;;;;;;;1.69;44.89;93129.88;4957567;28;20035;-78
2021/01/14 05:23:19;;;;;;;6.55;3.72;;;;;;;1.79;44.65;93139.56;4958429;28;20415;-78
2021/01/14 05:25:53;;;;;;;5.05;2.80;;;;;;;1.70;44.46;93136.66;4959545;28;20527;-78
2021/01/14 05:28:20;;;;;;;5.35;2.95;;;;;;;1.74;43.85;93142.94;4959245;28;20094;-77
2021/01/14 05:30:46;;;;;;;4.80;2.97;;;;;;;1.69;43.92;93129.09;4956116;28;20389;-78
2021/01/14 05:33:30;;;;;;;4.97;3.38;;;;;;;1.69;43.80;93113.47;4956904;28;20090;-78
2021/01/14 05:36:03;;;;;;;4.80;3.00;;;;;;;1.72;43.76;93120.75;4958648;28;20063;-78
2021/01/14 05:38:31;;;;;;;3.63;2.65;;;;;;;1.74;43.59;93110.88;4957631;28;20121;-78
2021/01/14 05:41:18;;;;;;;4.53;2.92;;;;;;;1.83;43.45;93116.41;4959644;28;20046;-77
2021/01/14 05:43:56;;;;;;;4.07;2.80;;;;;;;1.80;43.26;93120.31;4959085;28;20109;-78
2021/01/14 05:46:24;;;;;;;4.07;2.70;;;;;;;1.88;43.23;93112.03;4961759;28;20175;-78
2021/01/14 05:48:54;;;;;;;4.00;3.20;;;;;;;1.84;42.90;93104.97;4951338;28;20038;-77
2021/01/14 05:51:23;;;;;;;6.10;3.13;;;;;;;1.78;42.83;93122.38;4957950;28;20031;-78
2021/01/14 05:53:58;;;;;;;5.03;3.20;;;;;;;1.80;42.91;93117.72;4956732;28;20042;-79
2021/01/14 05:56:32;;;;;;;6.38;3.40;;;;;;;1.85;42.56;93115.13;4956354;28;20038;-78
2021/01/14 05:58:59;;;;;;;3.38;3.05;;;;;;;1.82;42.56;93105.19;4957155;28;20097;-78
2021/01/14 06:01:25;;;;;;;6.13;3.22;;;;;;;1.67;42.12;93103.28;4958637;28;20042;-77
2021/01/14 06:03:50;;;;;;;3.05;2.72;;;;;;;1.66;42.18;93088.69;4953519;28;20035;-78
2021/01/14 06:06:16;;;;;;;3.88;3.58;;;;;;;1.86;41.61;93105.50;4957037;28;20041;-78
2021/01/14 06:08:42;;;;;;;5.55;2.78;;;;;;;1.84;41.30;93110.16;4952469;28;20031;-77
2021/01/14 06:11:22;;;;;;;3.75;2.97;;;;;;;1.89;42.02;93107.59;4959683;28;20059;-78
2021/01/14 06:13:48;;;;;;;3.67;3.25;;;;;;;1.87;41.62;93125.28;4953240;28;20039;-78
2021/01/14 06:16:14;;;;;;;4.97;3.35;;;;;;;1.87;41.62;93114.88;4957096;28;20600;-77
2021/01/14 06:18:40;;;;;;;6.43;3.55;;;;;;;1.98;41.70;93122.50;4956959;28;20256;-78
2021/01/14 06:21:06;;;;;;;6.88;4.00;;;;;;;1.97;41.59;93122.75;4963010;28;20492;-78
2021/01/14 06:23:46;;;;;;;8.13;4.28;;;;;;;1.91;42.04;93137.56;4953289;28;20129;-78
2021/01/14 06:26:12;;;;;;;3.88;3.30;;;;;;;1.98;41.54;93132.13;4953066;28;20034;-77
2021/01/14 06:28:37;;;;;;;6.10;4.13;;;;;;;2.05;41.73;93130.09;4956710;28;20053;-78
2021/01/14 06:31:07;;;;;;;5.03;3.42;;;;;;;2.08;41.75;93146.03;4959426;28;20058;-77
2021/01/14 06:33:35;;;;;;;4.80;3.92;;;;;;;2.10;41.85;93133.50;4963206;28;20023;-78
2021/01/14 06:36:10;;;;;;;7.32;3.50;;;;;;;2.25;41.75;93142.47;4962104;28;20410;-78
2021/01/14 06:38:47;;;;;;;4.93;4.30;;;;;;;2.18;41.86;93137.47;4960986;28;20097;-77
2021/01/14 06:41:15;;;;;;;5.55;4.07;;;;;;;2.25;42.37;93132.03;4955687;28;20455;-78
2021/01/14 06:43:42;;;;;;;7.93;4.15;;;;;;;2.33;41.73;93128.94;4954478;28;20057;-78
2021/01/14 06:46:15;;;;;;;6.68;4.07;;;;;;;2.35;41.98;93112.00;4958171;28;20089;-78
2021/01/14 06:48:48;;;;;;;7.40;4.10;;;;;;;2.34;41.43;93107.84;4975384;28;20332;-78
2021/01/14 06:51:22;;;;;;;8.38;3.83;;;;;;;2.47;41.27;93114.41;4964451;28;20019;-78
2021/01/14 06:53:51;;;;;;;5.28;3.92;;;;;;;2.63;41.65;93128.28;4964382;28;20050;-78
2021/01/14 06:56:21;;;;;;;10.32;5.30;;;;;;;2.70;41.47;93134.81;4968740;28;20051;-78
2021/01/14 06:58:50;;;;;;;3.97;2.72;;;;;;;2.63;40.74;93112.63;4960193;28;20081;-78
2021/01/14 07:01:18;;;;;;;8.32;4.38;;;;;;;2.72;40.84;93117.09;4960777;28;20081;-78
2021/01/14 07:03:56;;;;;;;6.28;2.22;;;;;;;2.73;39.95;93129.09;4957420;28;20157;-78
2021/01/14 07:06:26;;;;;;;3.97;2.50;;;;;;;2.77;39.80;93130.16;4956450;28;20484;-78
2021/01/14 07:09:13;;;;;;;2.50;2.30;;;;;;;2.82;40.04;93132.78;4961101;28;20411;-78
2021/01/14 07:11:43;;;;;;;3.28;2.63;;;;;;;2.86;40.05;93133.03;4956252;28;20594;-78
2021/01/14 07:14:14;;;;;;;5.95;3.50;;;;;;;2.90;40.38;93129.66;4959171;28;21165;-78
2021/01/14 07:16:42;;;;;;;5.97;3.33;;;;;;;2.88;40.90;93123.16;4959560;28;20043;-77
2021/01/14 07:19:08;;;;;;;5.18;3.55;;;;;;;2.94;40.58;93122.88;4959520;28;20065;-78
2021/01/14 07:21:36;;;;;;;3.50;2.55;;;;;;;2.96;40.51;93112.97;4955009;28;20503;-78
2021/01/14 07:24:22;;;;;;;4.10;3.50;;;;;;;2.88;40.54;93095.19;4959585;28;20034;-78
2021/01/14 07:26:52;;;;;;;4.65;3.67;;;;;;;3.03;40.80;93103.06;4956103;28;20555;-78
2021/01/14 07:29:18;;;;;;;9.27;6.32;;;;;;;3.16;40.66;93098.41;4955300;28;20050;-77
2021/01/14 07:31:49;;;;;;;6.43;2.70;;;;;;;3.29;40.64;93090.84;4957503;28;20054;-77
2021/01/14 07:34:36;;;;;;;10.05;6.93;;;;;;;3.34;40.46;93097.88;4959465;28;20038;-75
2021/01/14 07:37:03;;;;;;;8.40;6.13;;;;;;;3.43;40.80;93097.09;4960810;28;20039;-76
2021/01/14 07:39:52;;;;;;;4.68;3.25;;;;;;;3.60;40.67;93081.16;4970497;28;20085;-76
2021/01/14 07:42:32;;;;;;;4.85;3.95;;;;;;;3.60;39.87;93081.16;4958932;28;20392;-76
2021/01/14 07:44:59;;;;;;;19.13;6.03;;;;;;;3.75;40.22;93089.00;4956877;28;20244;-77
2021/01/14 07:47:31;;;;;;;10.63;5.70;;;;;;;3.90;40.35;93081.13;4956193;28;21001;-76
2021/01/14 07:49:59;;;;;;;10.07;6.90;;;;;;;3.72;38.76;93073.81;4953958;28;20101;-77
2021/01/14 07:52:35;;;;;;;14.30;8.10;;;;;;;3.92;40.51;93094.72;4957315;28;20100;-77
2021/01/14 07:55:09;;;;;;;26.50;14.35;;;;;;;3.95;42.07;93096.03;4946932;28;21349;-77
2021/01/14 07:57:44;;;;;;;23.67;14.05;;;;;;;4.06;42.47;93081.84;4954194;28;20022;-77
2021/01/14 08:00:21;;;;;;;18.80;12.43;;;;;;;4.19;42.33;93067.47;4953273;28;20085;-77
2021/01/14 08:03:09;;;;;;;21.35;12.73;;;;;;;4.33;41.72;93069.25;4956220;28;20061;-76
2021/01/14 08:05:38;;;;;;;19.88;12.48;;;;;;;4.48;41.54;93071.00;4952637;28;20509;-77
2021/01/14 08:08:26;;;;;;;25.80;13.30;;;;;;;4.55;41.30;93081.16;4951924;28;20061;-76
2021/01/14 08:11:11;;;;;;;23.00;14.00;;;;;;;4.72;41.06;93090.25;4951076;28;20046;-76
2021/01/14 08:13:55;;;;;;;;;;;;;;;4.83;41.07;93093.63;4946197;28;20067;-76
2021/01/14 08:16:30;;;;;;;22.77;12.13;;;;;;;4.98;40.58;93090.13;4964915;28;20383;-76
2021/01/14 08:19:14;;;;;;;18.52;12.32;;;;;;;5.07;40.12;93093.75;4968504;28;20376;-76
2021/01/14 08:21:44;;;;;;;20.27;11.55;;;;;;;5.11;39.78;93073.81;4951564;28;20661;-76
2021/01/14 08:24:32;;;;;;;13.88;10.10;;;;;;;5.34;39.64;93069.72;4953409;28;20046;-77
2021/01/14 08:27:05;;;;;;;16.25;11.75;;;;;;;5.33;39.49;93044.56;4954345;28;20138;-76
2021/01/14 08:29:34;;;;;;;14.85;10.23;;;;;;;5.68;38.78;93066.03;4970475;28;20027;-76
2021/01/14 08:32:00;;;;;;;18.70;11.80;;;;;;;5.71;37.84;93056.06;4959422;28;20507;-76
2021/01/14 08:34:26;;;;;;;16.40;11.63;;;;;;;5.98;37.88;93058.97;4957445;28;20042;-76
2021/01/14 08:36:56;;;;;;;24.02;13.50;;;;;;;6.19;38.21;93031.47;4953844;28;20616;-75
2021/01/14 08:39:23;;;;;;;22.85;14.02;;;;;;;6.17;37.70;93036.22;4954597;28;20031;-77
2021/01/14 08:41:50;;;;;;;28.25;16.67;;;;;;;5.98;37.78;93025.66;4953963;28;20141;-78
2021/01/14 08:44:17;;;;;;;19.75;14.07;;;;;;;5.94;38.23;93000.28;4971145;28;20050;-76
2021/01/14 08:46:48;;;;;;;21.92;13.80;;;;;;;5.93;38.14;92993.47;4955207;28;20122;-75
2021/01/14 08:49:15;;;;;;;18.88;11.43;;;;;;;5.84;37.60;92988.03;4950491;28;20514;-75
2021/01/14 08:51:42;;;;;;;23.60;13.60;;;;;;;5.68;38.23;92990.03;4956735;28;20030;-76
2021/01/14 08:54:09;;;;;;;18.02;12.25;;;;;;;5.75;37.67;92978.44;4954936;28;20397;-76
2021/01/14 08:56:36;;;;;;;22.15;12.95;;;;;;;5.97;37.71;92992.63;4955492;28;20145;-76
2021/01/14 08:59:13;;;;;;;29.27;14.02;;;;;;;5.95;38.26;92967.75;4959001;28;20042;-77
2021/01/14 09:01:39;;;;;;;20.60;13.07;;;;;;;6.12;38.53;92989.06;4957725;28;20447;-76
2021/01/14 09:04:07;;;;;;;22.65;12.75;;;;;;;6.02;39.05;92966.34;4949113;28;20046;-76
2021/01/14 09:06:38;;;;;;;22.52;13.75;;;;;;;6.09;39.23;92958.16;4959810;28;20407;-75
2021/01/14 09:09:19;;;;;;;22.58;12.55;;;;;;;6.25;39.41;92946.41;4956348;28;20046;-76
2021/01/14 09:11:46;;;;;;;22.00;12.73;;;;;;;6.33;39.49;92948.41;4954852;28;20041;-75
2021/01/14 09:14:16;;;;;;;23.25;11.90;;;;;;;6.40;39.12;92943.56;4950991;28;20134;-76
2021/01/14 09:16:46;;;;;;;21.92;12.75;;;;;;;6.48;38.13;92950.03;4952433;28;20395;-77
2021/01/14 09:19:23;;;;;;;16.92;9.77;;;;;;;6.59;37.52;92940.97;4950091;28;20038;-76
2021/01/14 09:21:48;;;;;;;17.17;9.98;;;;;;;6.62;37.15;92936.97;4949601;28;20126;-75
2021/01/14 09:24:16;;;;;;;14.80;10.18;;;;;;;6.67;37.19;92926.41;4954011;28;20490;-74
2021/01/14 09:26:42;;;;;;;20.20;12.02;;;;;;;6.73;37.53;92933.94;4950268;28;20038;-76
2021/01/14 09:29:13;;;;;;;19.42;12.10;;;;;;;6.90;37.18;92920.28;4962201;28;20054;-75
2021/01/14 09:31:40;;;;;;;20.67;12.68;;;;;;;7.11;37.11;92921.50;4962361;28;20105;-76
2021/01/14 09:34:06;;;;;;;16.65;11.82;;;;;;;7.16;36.85;92918.81;4953532;28;20053;-79
2021/01/14 09:36:35;;;;;;;26.95;14.68;;;;;;;7.16;36.73;92899.63;4954456;28;20031;-81
2021/01/14 09:39:06;;;;;;;24.60;13.27;;;;;;;7.28;36.88;92911.22;4959561;28;20164;-78
2021/01/14 09:41:36;;;;;;;21.92;13.70;;;;;;;7.22;36.95;92880.88;4954497;28;20035;-86
2021/01/14 09:44:04;;;;;;;17.83;11.85;;;;;;;7.35;36.75;92880.09;4937470;28;20133;-79
2021/01/14 09:46:32;;;;;;;17.70;11.85;;;;;;;7.53;36.94;92872.41;4950412;28;20062;-78
2021/01/14 09:48:59;;;;;;;19.80;12.27;;;;;;;7.51;36.76;92874.56;4954710;28;20109;-83
2021/01/14 09:51:25;;;;;;;17.60;11.52;;;;;;;7.71;36.33;92867.09;4972055;28;20030;-77
2021/01/14 09:53:50;;;;;;;20.08;12.82;;;;;;;7.81;37.12;92858.22;4954793;28;20038;-77
2021/01/14 09:56:28;;;;;;;20.85;11.55;;;;;;;8.01;36.82;92852.53;4952574;28;20567;-77
2021/01/14 09:58:56;;;;;;;20.77;11.95;;;;;;;7.87;36.10;92849.13;4950481;28;20302;-77
2021/01/14 10:01:27;;;;;;;19.63;13.68;;;;;;;7.93;36.03;92861.13;4951963;28;20054;-77
2021/01/14 10:04:05;;;;;;;17.75;11.90;;;;;;;7.81;36.12;92866.09;4948651;28;20763;-77
2021/01/14 10:06:42;;;;;;;19.10;11.50;;;;;;;7.81;35.96;92860.84;4953855;28;20019;-77
2021/01/14 10:09:09;;;;;;;19.73;12.27;;;;;;;7.81;37.05;92861.63;4954471;28;20062;-77
2021/01/14 10:11:35;;;;;;;22.65;12.48;;;;;;;7.94;36.96;92867.94;4947971;28;20058;-77
2021/01/14 10:14:01;;;;;;;17.73;12.50;;;;;;;7.97;36.55;92853.41;4965619;28;20047;-77
2021/01/14 10:16:28;;;;;;;20.23;13.15;;;;;;;8.07;36.80;92847.94;4959820;28;20089;-77
2021/01/14 10:19:08;;;;;;;18.55;12.23;;;;;;;8.06;36.02;92847.16;4951637;28;20078;-77
2021/01/14 10:21:36;;;;;;;21.45;12.23;;;;;;;8.05;36.26;92865.88;4959851;28;20035;-76
2021/01/14 10:24:02;;;;;;;19.85;11.80;;;;;;;8.02;35.96;92861.19;4958952;28;20057;-76
2021/01/14 10:26:28;;;;;;;20.33;13.60;;;;;;;7.93;36.09;92863.75;4959750;28;21048;-76
2021/01/14 10:28:54;;;;;;;22.35;13.80;;;;;;;7.95;37.02;92858.19;4965814;28;20054;-76
2021/01/14 10:31:34;;;;;;;20.33;12.38;;;;;;;7.93;36.31;92863.75;4950405;28;20046;-76
2021/01/14 10:34:00;;;;;;;23.58;13.90;;;;;;;7.87;36.69;92864.16;4951335;28;24289;-76
2021/01/14 10:36:43;;;;;;;20.45;13.25;;;;;;;7.85;36.99;92861.81;4952522;28;20019;-76
2021/01/14 10:39:09;;;;;;;29.25;17.25;;;;;;;7.70;37.74;92862.09;4955691;28;20451;-76
2021/01/14 10:41:34;;;;;;;25.25;16.02;;;;;;;7.63;37.69;92861.72;4969677;28;20585;-76
2021/01/14 10:44:05;;;;;;;27.60;14.50;;;;;;;7.55;36.75;92834.25;4954681;28;20046;-75
2021/01/14 10:46:31;;;;;;;28.85;15.85;;;;;;;7.65;37.37;92841.16;4950943;28;20511;-77
2021/01/14 10:49:07;;;;;;;25.30;15.55;;;;;;;7.54;37.40;92835.31;4954247;28;20105;-77
2021/01/14 10:51:33;;;;;;;32.97;15.85;;;;;;;7.43;37.73;92833.19;4953120;28;20129;-77
2021/01/14 10:53:58;;;;;;;36.53;21.55;;;;;;;7.37;38.80;92830.66;4960392;28;20500;-76
2021/01/14 10:56:24;;;;;;;34.83;21.55;;;;;;;7.42;38.34;92827.16;4957203;28;20411;-76
2021/01/14 10:58:57;;;;;;;36.30;21.77;;;;;;;7.52;37.96;92836.69;4948743;28;20050;-77
2021/01/14 11:01:24;;;;;;;37.28;23.08;;;;;;;7.47;38.25;92844.69;4953233;28;20070;-76
2021/01/14 11:03:53;;;;;;;34.20;21.23;;;;;;;7.36;38.19;92860.66;4954589;28;20137;-77
2021/01/14 11:06:27;;;;;;;40.22;23.50;;;;;;;7.39;38.69;92854.00;4956822;28;20022;-77
2021/01/14 11:08:58;;;;;;;37.97;25.23;;;;;;;7.37;39.26;92854.31;4970207;28;21089;-76
2021/01/14 11:11:24;;;;;;;43.35;26.88;;;;;;;7.33;39.11;92852.56;4954606;28;20679;-76
2021/01/14 11:13:51;;;;;;;43.53;28.05;;;;;;;7.18;39.10;92837.88;4952053;28;20130;-76
2021/01/14 11:16:27;;;;;;;46.15;27.05;;;;;;;7.20;39.01;92861.97;4954319;28;20042;-76
2021/01/14 11:18:55;;;;;;;46.50;25.42;;;;;;;7.15;39.16;92848.94;4956909;28;20022;-76
2021/01/14 11:21:32;;;;;;;44.47;26.50;;;;;;;7.15;38.77;92848.94;4953773;28;20063;-76
2021/01/14 11:23:59;;;;;;;40.90;25.48;;;;;;;7.22;38.91;92838.84;4955926;28;20035;-76
2021/01/14 11:26:24;;;;;;;38.75;24.88;;;;;;;7.17;38.79;92825.78;4944866;28;20049;-76
2021/01/14 11:28:51;;;;;;;40.25;23.35;;;;;;;7.17;39.32;92838.91;4946338;28;20042;-76
2021/01/14 11:31:19;;;;;;;35.65;23.48;;;;;;;7.19;39.18;92838.63;4937790;28;20489;-76
2021/01/14 11:33:45;;;;;;;38.92;25.80;;;;;;;7.20;38.98;92829.66;4950281;28;20098;-75
2021/01/14 11:36:12;;;;;;;38.38;22.90;;;;;;;7.10;38.90;92820.13;4956763;28;20458;-76
2021/01/14 11:38:38;;;;;;;45.72;28.25;;;;;;;6.99;39.57;92810.84;4952523;28;20042;-75
2021/01/14 11:41:04;;;;;;;51.25;30.13;;;;;;;6.87;39.80;92792.97;4956219;28;20411;-75
2021/01/14 11:43:31;;;;;;;40.78;24.60;;;;;;;7.02;39.94;92807.66;4947640;28;20582;-75